Friars Point, MS (38631)

4:18 PM CDT on April 18, 2015 (GMT -0500)
Fletcher | | Change Station
CLOSE
Current Station
Airport
Location: Clarksdale Fletcher Field Air,
Elevation: 174 ft
Nearby Weather Stations

Elev 174 ft 34.30 °N, 90.51 °W | Updated 23 minutes ago

Overcast
Overcast
68 °F
Feels Like 68 °F
N
7
Wind Variable Wind from ENE

Today
High -- | Low -- °F
--% Chance of Precip.
Yesterday
High -- | Low -- °F
Precip. -- in
6:27 AM 7:36 PM
New Moon, 0% visible
Pressure 29.88 in
Visibility -9999.0 miles
Clouds Mostly Cloudy 2800 ft
Mostly Cloudy 8000 ft
Dew Point 64 °F
Humidity 88%
Rainfall 0.00 in
Snow Depth Not available.
UV 3 out of 12
Pollen 9.80 out of 12
Air Quality Not available.
Flu Activity Sporadic
METAR KCKM 182055Z AUTO 07006KT BKN028 BKN080 20/18 A2988 RMK AO1

More Conditions Fewer Conditions

Pressure 29.88 in
Visibility -9999.0 miles
Clouds Mostly Cloudy 2800 ft
Mostly Cloudy 8000 ft
Dew Point 64 °F
Humidity 88%
Rainfall 0.00 in
Snow Depth Not available.
UV 3 out of 12
Pollen 9.80 out of 12
Air Quality Not available.
Flu Activity Sporadic
METAR KCKM 182055Z AUTO 07006KT BKN028 BKN080 20/18 A2988 RMK AO1

More Conditions Fewer Conditions

10-Day Weather Forecast

Almanac

Astronomy

Apr. 18, 2015 Rise Set
Actual Time
Civil Twilight
Nautical Twilight
Astronomical Twilight
Moon
Length of Visible Light
Length of Day
Tomorrow will be .
, % of the Moon is Illuminated

Today's Extremes

State Highs State Lows

Community

WunderPhotos

Upload Photos

1,814,532 photos uploaded!

WunderBlogs® & News

Nearby

Air Quality

  Air Quality AQ Index Pollutant
Not available.

Snow Depth

Station Depth Elevation

Earthquake Activity

City Distance Mag. Time & Date
Minimum magnitude displayed is 2.5.

Coastal Water Temperatures

Place Temperature

Stations

Nearby Weather Stations

Station Location Temp. Windchill Dew Point Humidity Wind Precip. Elev Updated Type